createdAt,value
2023-04-19T00:01:30.355Z,10.20
2023-04-19T00:03:57.313Z,10.20
2023-04-19T00:06:24.685Z,10.10
2023-04-19T00:08:51.716Z,10.10
2023-04-19T00:11:18.457Z,10.10
2023-04-19T00:13:45.462Z,10.10
2023-04-19T00:16:12.261Z,10.10
2023-04-19T00:18:39.219Z,10.10
2023-04-19T00:21:06.388Z,10.00
2023-04-19T00:23:33.083Z,10.00
2023-04-19T00:26:03.939Z,10.00
2023-04-19T00:28:31.096Z,10.00
2023-04-19T00:30:58.141Z,9.90
2023-04-19T00:33:24.922Z,9.90
2023-04-19T00:35:51.810Z,9.90
2023-04-19T00:38:18.698Z,9.90
2023-04-19T00:40:46.695Z,9.90
2023-04-19T00:43:20.343Z,9.90
2023-04-19T00:45:48.533Z,9.90
2023-04-19T00:48:15.564Z,9.90
2023-04-19T00:50:44.803Z,9.80
2023-04-19T00:53:11.840Z,9.80
2023-04-19T00:55:42.604Z,9.80
2023-04-19T00:58:09.894Z,9.80
2023-04-19T01:00:37.515Z,9.80
2023-04-19T01:03:04.571Z,9.80
2023-04-19T01:05:31.451Z,9.70
2023-04-19T01:07:58.229Z,9.70
2023-04-19T01:10:25.260Z,9.70
2023-04-19T01:12:52.000Z,9.70
2023-04-19T01:15:18.805Z,9.70
2023-04-19T01:17:45.864Z,9.60
2023-04-19T01:20:13.583Z,9.60
2023-04-19T01:22:40.441Z,9.60
2023-04-19T01:25:07.729Z,9.60
2023-04-19T01:27:34.604Z,9.60
2023-04-19T01:30:01.261Z,9.60
2023-04-19T01:32:28.084Z,9.60
2023-04-19T01:34:54.822Z,9.70
2023-04-19T01:37:21.625Z,9.60
2023-04-19T01:39:48.390Z,9.60
2023-04-19T01:42:15.213Z,9.60
2023-04-19T01:44:42.016Z,9.60
2023-04-19T01:47:08.779Z,9.60
2023-04-19T01:49:35.755Z,9.60
2023-04-19T01:52:02.498Z,9.60
2023-04-19T01:54:29.240Z,9.60
2023-04-19T01:56:55.964Z,9.60
2023-04-19T01:59:22.709Z,9.60
2023-04-19T02:01:49.444Z,9.60
2023-04-19T02:04:16.340Z,9.60
2023-04-19T02:06:43.262Z,9.60
2023-04-19T02:09:09.971Z,9.60
2023-04-19T02:11:36.736Z,9.50
2023-04-19T02:14:03.444Z,9.60
2023-04-19T02:16:30.258Z,9.50
2023-04-19T02:18:57.008Z,9.60
2023-04-19T02:21:23.720Z,9.50
2023-04-19T02:23:50.764Z,9.50
2023-04-19T02:26:17.432Z,9.50
2023-04-19T02:28:44.116Z,9.40
2023-04-19T02:31:11.031Z,9.40
2023-04-19T02:33:37.758Z,9.40
2023-04-19T02:36:04.712Z,9.40
2023-04-19T02:38:31.392Z,9.40
2023-04-19T02:40:58.107Z,9.40
2023-04-19T02:43:25.007Z,9.40
2023-04-19T02:45:51.797Z,9.40
2023-04-19T02:48:18.596Z,9.40
2023-04-19T02:50:45.386Z,9.40
2023-04-19T02:53:12.131Z,9.50
2023-04-19T02:55:38.859Z,9.50
2023-04-19T02:58:05.613Z,9.50
2023-04-19T03:00:32.451Z,9.50
2023-04-19T03:02:59.392Z,9.60
2023-04-19T03:05:26.343Z,9.60
2023-04-19T03:07:53.085Z,9.60
2023-04-19T03:10:19.891Z,9.60
2023-04-19T03:12:46.632Z,9.60
2023-04-19T03:15:13.401Z,9.70
2023-04-19T03:17:40.536Z,9.70
2023-04-19T03:20:14.221Z,9.70
2023-04-19T03:22:40.955Z,9.70
2023-04-19T03:25:08.624Z,9.80
2023-04-19T03:27:36.771Z,9.80
2023-04-19T03:30:03.741Z,9.80
2023-04-19T03:32:31.907Z,9.80
2023-04-19T03:34:58.594Z,9.80
2023-04-19T03:37:25.273Z,9.80
2023-04-19T03:39:52.016Z,9.90
2023-04-19T03:42:18.799Z,9.90
2023-04-19T03:44:45.715Z,9.90
2023-04-19T03:47:12.502Z,9.90
2023-04-19T03:49:39.279Z,9.90
2023-04-19T03:52:05.999Z,9.90
2023-04-19T03:54:32.683Z,10.00
2023-04-19T03:56:59.624Z,10.00
2023-04-19T03:59:26.498Z,10.00
2023-04-19T04:01:53.293Z,10.00
2023-04-19T04:04:20.311Z,10.10
2023-04-19T04:06:47.386Z,10.10
2023-04-19T04:09:14.063Z,10.10
2023-04-19T04:11:40.715Z,10.10
2023-04-19T04:14:07.494Z,10.10
2023-04-19T04:16:34.224Z,10.20
2023-04-19T04:19:01.015Z,10.20
2023-04-19T04:21:28.174Z,10.20
2023-04-19T04:23:54.947Z,10.20
2023-04-19T04:26:22.020Z,10.20
2023-04-19T04:28:48.692Z,10.20
2023-04-19T04:31:18.033Z,10.20
2023-04-19T04:33:45.911Z,10.20
2023-04-19T04:36:12.867Z,10.30
2023-04-19T04:38:39.615Z,10.30
2023-04-19T04:41:06.402Z,10.20
2023-04-19T04:43:34.638Z,10.20
2023-04-19T04:46:01.921Z,10.30
2023-04-19T04:48:28.780Z,10.30
2023-04-19T04:50:55.612Z,10.30
2023-04-19T04:53:22.362Z,10.30
2023-04-19T04:55:49.069Z,10.30
2023-04-19T04:58:15.861Z,10.40
2023-04-19T05:00:42.829Z,10.40
2023-04-19T05:03:09.688Z,10.40
2023-04-19T05:05:36.585Z,10.40
2023-04-19T05:08:03.619Z,10.40
2023-04-19T05:10:30.384Z,10.50
2023-04-19T05:12:57.104Z,10.50
2023-04-19T05:15:23.938Z,10.40
2023-04-19T05:17:50.736Z,10.50
2023-04-19T05:20:17.511Z,10.60
2023-04-19T05:22:44.256Z,10.60
2023-04-19T05:25:11.622Z,10.60
2023-04-19T05:27:38.446Z,10.60
2023-04-19T05:30:06.618Z,10.70
2023-04-19T05:32:33.582Z,10.60
2023-04-19T05:35:00.339Z,10.60
2023-04-19T05:37:27.121Z,10.60
2023-04-19T05:39:53.824Z,10.60
2023-04-19T05:42:20.602Z,10.60
2023-04-19T05:44:47.331Z,10.60
2023-04-19T05:47:14.080Z,10.60
2023-04-19T05:49:42.024Z,10.60
2023-04-19T05:52:09.873Z,10.60
2023-04-19T05:54:36.675Z,10.60
2023-04-19T05:57:03.836Z,10.60
2023-04-19T05:59:30.678Z,10.60
2023-04-19T06:01:57.670Z,10.60
2023-04-19T06:04:25.038Z,10.60
2023-04-19T06:06:51.907Z,10.70
2023-04-19T06:09:18.759Z,10.70
2023-04-19T06:11:50.891Z,10.60
2023-04-19T06:14:18.635Z,10.70
2023-04-19T06:16:45.816Z,10.60
2023-04-19T06:19:12.570Z,10.70
2023-04-19T06:21:39.374Z,10.70
2023-04-19T06:24:07.386Z,10.70
2023-04-19T06:26:34.135Z,10.80
2023-04-19T06:29:01.268Z,10.80
2023-04-19T06:31:28.049Z,10.80
2023-04-19T06:33:54.819Z,10.80
2023-04-19T06:36:21.601Z,10.80
2023-04-19T06:38:49.928Z,10.90
2023-04-19T06:41:16.932Z,10.80
2023-04-19T06:43:44.744Z,10.80
2023-04-19T06:46:13.843Z,10.90
2023-04-19T06:48:40.964Z,10.90
2023-04-19T06:51:07.939Z,11.00
2023-04-19T06:53:35.697Z,10.90
2023-04-19T06:56:04.461Z,10.90
2023-04-19T06:58:35.380Z,11.00
2023-04-19T07:01:04.483Z,11.00
2023-04-19T07:03:31.899Z,11.10
2023-04-19T07:05:58.899Z,11.10
2023-04-19T07:08:32.262Z,11.20
2023-04-19T07:11:02.088Z,11.20
2023-04-19T07:13:28.809Z,11.20
2023-04-19T07:15:55.618Z,11.30
2023-04-19T07:18:22.379Z,11.40
2023-04-19T07:20:49.459Z,11.40
2023-04-19T07:23:16.323Z,11.40
2023-04-19T07:25:43.118Z,11.40
2023-04-19T07:28:09.926Z,11.50
2023-04-19T07:30:37.509Z,11.50
2023-04-19T07:33:04.980Z,11.60
2023-04-19T07:35:31.754Z,11.60
2023-04-19T07:37:58.479Z,11.70
2023-04-19T07:40:25.320Z,11.80
2023-04-19T07:42:52.038Z,11.90
2023-04-19T07:45:18.846Z,11.90
2023-04-19T07:47:45.684Z,11.90
2023-04-19T07:50:12.557Z,12.00
2023-04-19T07:52:39.503Z,12.00
2023-04-19T07:55:06.976Z,12.10
2023-04-19T07:57:35.468Z,12.10
2023-04-19T08:00:02.344Z,12.20
2023-04-19T08:02:29.142Z,12.20
2023-04-19T08:04:57.805Z,12.30
2023-04-19T08:07:26.102Z,12.30
2023-04-19T08:09:53.180Z,12.40
2023-04-19T08:12:34.511Z,12.40
2023-04-19T08:15:15.407Z,12.50
2023-04-19T08:17:54.590Z,12.60
2023-04-19T08:20:21.818Z,12.60
2023-04-19T08:22:48.575Z,12.60
2023-04-19T08:25:16.518Z,12.60
2023-04-19T08:27:43.290Z,12.60
2023-04-19T08:30:10.954Z,12.70
2023-04-19T08:32:38.075Z,12.80
2023-04-19T08:35:06.036Z,12.80
2023-04-19T08:37:32.724Z,12.80
2023-04-19T08:39:59.443Z,12.90
2023-04-19T08:42:35.656Z,12.90
2023-04-19T08:47:51.771Z,13.10
2023-04-19T08:50:32.473Z,13.20
2023-04-19T08:53:12.212Z,13.20
2023-04-19T08:56:07.021Z,13.30
2023-04-19T09:01:06.804Z,13.30
2023-04-19T09:03:44.023Z,13.40
2023-04-19T09:06:18.611Z,13.50
2023-04-19T09:08:45.556Z,13.60
2023-04-19T09:11:12.314Z,13.60
2023-04-19T09:13:40.551Z,13.60
2023-04-19T09:16:22.639Z,13.70
2023-04-19T09:19:05.469Z,13.70
2023-04-19T09:21:42.426Z,13.80
2023-04-19T09:24:09.236Z,13.90
2023-04-19T09:26:36.611Z,13.90
2023-04-19T09:29:05.430Z,13.90
2023-04-19T09:31:50.806Z,13.90
2023-04-19T09:34:19.823Z,13.90
2023-04-19T09:36:46.984Z,14.00
2023-04-19T09:39:14.601Z,14.00
2023-04-19T09:41:54.838Z,14.00
2023-04-19T09:44:53.074Z,14.10
2023-04-19T09:47:28.839Z,14.10
2023-04-19T09:50:21.764Z,14.10
2023-04-19T09:52:51.045Z,14.10
2023-04-19T09:57:48.547Z,14.20
2023-04-19T10:00:15.776Z,14.30
2023-04-19T10:02:43.568Z,14.30
2023-04-19T10:05:20.556Z,14.40
2023-04-19T10:07:49.511Z,14.40
2023-04-19T10:10:20.833Z,14.50
2023-04-19T10:13:11.463Z,14.40
2023-04-19T10:18:09.001Z,14.50
2023-04-19T10:20:45.893Z,14.50
2023-04-19T10:23:13.044Z,14.60
2023-04-19T10:25:39.753Z,14.60
2023-04-19T10:28:06.527Z,14.60
2023-04-19T10:30:33.402Z,14.70
2023-04-19T10:33:02.947Z,14.80
2023-04-19T10:35:38.292Z,14.80
2023-04-19T10:38:11.211Z,14.90
2023-04-19T10:40:56.995Z,14.90
2023-04-19T10:43:25.201Z,14.80
2023-04-19T10:45:52.770Z,14.90
2023-04-19T10:48:33.240Z,14.80
2023-04-19T10:51:03.662Z,14.80
2023-04-19T10:53:45.647Z,14.80
2023-04-19T10:56:12.702Z,14.80
2023-04-19T10:59:07.944Z,14.80
2023-04-19T11:01:43.468Z,14.90
2023-04-19T11:04:10.623Z,14.90
2023-04-19T11:06:39.153Z,14.90
2023-04-19T11:09:07.242Z,14.90
2023-04-19T11:11:35.809Z,14.90
2023-04-19T11:14:04.345Z,14.90
2023-04-19T11:16:44.872Z,14.90
2023-04-19T11:19:19.826Z,14.90
2023-04-19T11:21:47.272Z,14.90
2023-04-19T11:24:18.967Z,14.90
2023-04-19T11:26:47.138Z,15.00
2023-04-19T11:29:14.246Z,15.10
2023-04-19T11:31:44.124Z,15.20
2023-04-19T11:34:10.898Z,15.20
2023-04-19T11:36:51.301Z,15.30
2023-04-19T11:39:18.616Z,15.30
2023-04-19T11:41:47.202Z,15.40
2023-04-19T11:44:15.956Z,15.40
2023-04-19T11:46:43.871Z,15.40
2023-04-19T11:49:10.749Z,15.40
2023-04-19T11:51:42.379Z,15.40
2023-04-19T11:54:16.868Z,15.50
2023-04-19T11:57:01.553Z,15.50
2023-04-19T11:59:29.118Z,15.70
2023-04-19T12:01:55.970Z,15.70
2023-04-19T12:04:23.451Z,15.70
2023-04-19T12:07:01.330Z,15.80
2023-04-19T12:09:28.131Z,15.80
2023-04-19T12:11:55.022Z,15.80
2023-04-19T12:14:23.274Z,15.80
2023-04-19T12:17:13.719Z,15.80
2023-04-19T12:19:47.687Z,15.80
2023-04-19T12:22:16.581Z,15.90
2023-04-19T12:24:43.649Z,16.00
2023-04-19T12:27:11.325Z,16.10
2023-04-19T12:29:39.064Z,16.10
2023-04-19T12:32:06.563Z,16.10
2023-04-19T12:34:33.412Z,16.20
2023-04-19T12:37:01.101Z,16.20
2023-04-19T12:39:28.838Z,16.20
2023-04-19T12:41:56.056Z,16.30
2023-04-19T12:44:23.283Z,16.30
2023-04-19T12:46:50.125Z,16.40
2023-04-19T12:49:20.271Z,16.50
2023-04-19T12:51:47.574Z,16.60
2023-04-19T12:54:15.260Z,16.60
2023-04-19T12:56:42.114Z,16.70
2023-04-19T12:59:08.859Z,16.70
2023-04-19T13:01:35.710Z,16.70
2023-04-19T13:04:03.052Z,16.60
2023-04-19T13:06:30.056Z,16.60
2023-04-19T13:09:00.447Z,16.70
2023-04-19T13:11:28.373Z,16.70
2023-04-19T13:13:55.201Z,16.70
2023-04-19T13:16:22.582Z,16.70
2023-04-19T13:18:50.848Z,16.70
2023-04-19T13:21:17.544Z,16.70
2023-04-19T13:23:45.069Z,16.70
2023-04-19T13:26:12.029Z,16.80
2023-04-19T13:28:39.775Z,16.90
2023-04-19T13:31:06.525Z,17.00
2023-04-19T13:33:33.420Z,17.00
2023-04-19T13:36:00.409Z,17.00
2023-04-19T13:38:27.158Z,17.10
2023-04-19T13:40:53.867Z,17.00
2023-04-19T13:43:21.406Z,17.10
2023-04-19T13:45:48.212Z,17.20
2023-04-19T13:48:14.959Z,17.20
2023-04-19T13:50:41.679Z,17.20
2023-04-19T13:53:08.560Z,17.20
2023-04-19T13:55:35.437Z,17.30
2023-04-19T13:58:02.172Z,17.30
2023-04-19T14:00:29.028Z,17.30
2023-04-19T14:02:56.897Z,17.30
2023-04-19T14:05:23.820Z,17.30
2023-04-19T14:07:50.564Z,17.40
2023-04-19T14:10:17.405Z,17.40
2023-04-19T14:12:45.016Z,17.40
2023-04-19T14:15:12.307Z,17.40
2023-04-19T14:17:39.181Z,17.50
2023-04-19T14:20:07.586Z,17.40
2023-04-19T14:22:35.406Z,17.40
2023-04-19T14:25:03.669Z,17.40
2023-04-19T14:27:30.637Z,17.30
2023-04-19T14:29:57.451Z,17.20
2023-04-19T14:32:26.523Z,17.20
2023-04-19T14:34:55.187Z,17.10
2023-04-19T14:37:23.348Z,17.10
2023-04-19T14:39:50.164Z,17.10
2023-04-19T14:42:16.943Z,17.10
2023-04-19T14:44:43.938Z,17.20
2023-04-19T14:47:10.980Z,17.10
2023-04-19T14:49:37.762Z,17.10
2023-04-19T14:52:04.973Z,17.10
2023-04-19T14:54:31.708Z,17.10
2023-04-19T14:56:58.417Z,17.10
2023-04-19T14:59:25.302Z,17.20
2023-04-19T15:01:52.131Z,17.20
2023-04-19T15:04:19.170Z,17.20
2023-04-19T15:06:46.226Z,17.20
2023-04-19T15:09:13.116Z,17.20
2023-04-19T15:11:39.846Z,17.20
2023-04-19T15:14:06.645Z,17.20
2023-04-19T15:16:33.607Z,17.10
2023-04-19T15:19:02.043Z,17.20
2023-04-19T15:21:29.256Z,17.20
2023-04-19T15:23:55.985Z,17.30
2023-04-19T15:26:23.745Z,17.30
2023-04-19T15:28:50.438Z,17.30
2023-04-19T15:31:17.564Z,17.30
2023-04-19T15:33:44.354Z,17.30
2023-04-19T15:36:11.131Z,17.30
2023-04-19T15:38:38.073Z,17.30
2023-04-19T15:41:05.161Z,17.20
2023-04-19T15:43:31.982Z,17.20
2023-04-19T15:45:58.721Z,17.10
2023-04-19T15:48:26.110Z,17.00
2023-04-19T15:50:52.824Z,17.00
2023-04-19T15:53:19.516Z,17.00
2023-04-19T15:55:47.974Z,17.10
2023-04-19T15:58:15.212Z,17.10
2023-04-19T16:00:41.924Z,17.10
2023-04-19T16:03:11.608Z,17.10
2023-04-19T16:05:38.539Z,17.00
2023-04-19T16:08:07.764Z,17.00
2023-04-19T16:10:34.975Z,17.00
2023-04-19T16:13:03.409Z,17.00
2023-04-19T16:15:30.372Z,17.00
2023-04-19T16:17:57.137Z,16.90
2023-04-19T16:20:24.106Z,16.90
2023-04-19T16:22:50.884Z,16.80
2023-04-19T16:25:17.761Z,16.80
2023-04-19T16:27:45.823Z,16.70
2023-04-19T16:30:14.577Z,16.60
2023-04-19T16:32:42.001Z,16.60
2023-04-19T16:35:09.496Z,16.50
2023-04-19T16:37:36.499Z,16.50
2023-04-19T16:40:09.758Z,16.40
2023-04-19T16:42:38.253Z,16.50
2023-04-19T16:45:06.222Z,16.50
2023-04-19T16:47:33.646Z,16.50
2023-04-19T16:50:01.259Z,16.40
2023-04-19T16:52:29.777Z,16.30
2023-04-19T16:54:56.571Z,16.30
2023-04-19T16:57:23.735Z,16.30
2023-04-19T16:59:50.780Z,16.20
2023-04-19T17:02:17.979Z,16.20
2023-04-19T17:04:44.902Z,16.10
2023-04-19T17:07:12.448Z,16.10
2023-04-19T17:09:39.278Z,16.10
2023-04-19T17:12:06.377Z,16.10
2023-04-19T17:14:35.170Z,16.10
2023-04-19T17:17:02.018Z,16.00
2023-04-19T17:19:28.834Z,16.00
2023-04-19T17:21:55.716Z,16.00
2023-04-19T17:24:22.548Z,16.00
2023-04-19T17:26:50.037Z,15.90
2023-04-19T17:29:17.058Z,15.90
2023-04-19T17:31:44.042Z,15.80
2023-04-19T17:34:11.036Z,15.80
2023-04-19T17:36:37.761Z,15.90
2023-04-19T17:39:06.526Z,15.90
2023-04-19T17:41:33.564Z,15.90
2023-04-19T17:44:00.506Z,15.90
2023-04-19T17:46:27.310Z,15.80
2023-04-19T17:48:55.428Z,15.80
2023-04-19T17:51:22.501Z,15.70
2023-04-19T17:53:49.276Z,15.60
2023-04-19T17:56:16.035Z,15.50
2023-04-19T17:58:42.857Z,15.40
2023-04-19T18:01:10.487Z,15.30
2023-04-19T18:03:37.921Z,15.20
2023-04-19T18:06:04.962Z,15.10
2023-04-19T18:08:31.722Z,15.00
2023-04-19T18:10:58.723Z,14.90
2023-04-19T18:13:25.718Z,14.80
2023-04-19T18:15:52.537Z,14.80
2023-04-19T18:18:19.322Z,14.90
2023-04-19T18:20:46.062Z,14.90
2023-04-19T18:23:12.804Z,14.90
2023-04-19T18:25:39.691Z,14.80
2023-04-19T18:28:06.655Z,14.60
2023-04-19T18:30:33.800Z,14.30
2023-04-19T18:33:00.676Z,14.00
2023-04-19T18:35:27.521Z,13.80
2023-04-19T18:37:54.244Z,13.60
2023-04-19T18:40:21.105Z,13.40
2023-04-19T18:42:47.889Z,13.30
2023-04-19T18:45:15.065Z,13.20
2023-04-19T18:47:41.981Z,13.00
2023-04-19T18:50:09.545Z,13.00
2023-04-19T18:52:37.452Z,12.90
2023-04-19T18:55:05.846Z,12.80
2023-04-19T18:57:34.909Z,12.70
2023-04-19T19:00:02.655Z,12.60
2023-04-19T19:02:29.615Z,12.60
2023-04-19T19:05:01.350Z,12.50
2023-04-19T19:10:01.673Z,12.40
2023-04-19T19:12:29.131Z,12.40
2023-04-19T19:14:56.037Z,12.30
2023-04-19T19:17:24.313Z,12.30
2023-04-19T19:19:51.283Z,12.20
2023-04-19T19:22:27.836Z,12.20
2023-04-19T19:24:55.472Z,12.10
2023-04-19T19:27:22.304Z,12.10
2023-04-19T19:29:49.112Z,12.10
2023-04-19T19:32:16.090Z,12.10
2023-04-19T19:34:53.839Z,12.00
2023-04-19T19:37:22.113Z,12.00
2023-04-19T19:39:49.047Z,11.90
2023-04-19T19:42:16.802Z,12.00
2023-04-19T19:44:43.839Z,11.90
2023-04-19T19:47:11.310Z,11.90
2023-04-19T19:52:08.037Z,11.80
2023-04-19T19:54:34.872Z,11.80
2023-04-19T19:59:34.872Z,11.70
2023-04-19T20:02:03.685Z,11.70
2023-04-19T20:04:31.702Z,11.70
2023-04-19T20:09:28.346Z,11.70
2023-04-19T20:11:55.135Z,11.60
2023-04-19T20:14:23.751Z,11.60
2023-04-19T20:16:51.821Z,11.60
2023-04-19T20:19:19.425Z,11.60
2023-04-19T20:21:47.074Z,11.60
2023-04-19T20:24:14.052Z,11.50
2023-04-19T20:26:40.889Z,11.50
2023-04-19T20:29:07.885Z,11.50
2023-04-19T20:31:34.671Z,11.50
2023-04-19T20:34:01.447Z,11.40
2023-04-19T20:36:28.421Z,11.40
2023-04-19T20:38:56.951Z,11.40
2023-04-19T20:41:23.680Z,11.30
2023-04-19T20:43:50.754Z,11.30
2023-04-19T20:46:17.577Z,11.30
2023-04-19T20:48:44.326Z,11.30
2023-04-19T20:51:12.731Z,11.30
2023-04-19T20:53:39.439Z,11.20
2023-04-19T20:56:06.183Z,11.20
2023-04-19T20:58:33.683Z,11.20
2023-04-19T21:01:00.683Z,11.20
2023-04-19T21:03:27.701Z,11.10
2023-04-19T21:05:54.553Z,11.10
2023-04-19T21:08:23.450Z,11.20
2023-04-19T21:10:50.219Z,11.10
2023-04-19T21:13:16.898Z,11.10
2023-04-19T21:15:43.615Z,11.10
2023-04-19T21:18:10.366Z,11.10
2023-04-19T21:20:37.801Z,11.10
2023-04-19T21:23:04.568Z,11.10
2023-04-19T21:25:31.479Z,11.00
2023-04-19T21:27:58.199Z,11.00
2023-04-19T21:30:25.687Z,11.00
2023-04-19T21:32:52.931Z,11.00
2023-04-19T21:35:19.948Z,10.90
2023-04-19T21:37:46.733Z,11.00
2023-04-19T21:40:13.622Z,10.90
2023-04-19T21:42:40.504Z,10.90
2023-04-19T21:45:07.734Z,10.80
2023-04-19T21:47:34.605Z,10.80
2023-04-19T21:50:01.468Z,10.80
2023-04-19T21:52:28.213Z,10.80
2023-04-19T21:54:55.028Z,10.70
2023-04-19T21:57:25.252Z,10.70
2023-04-19T21:59:51.969Z,10.60
2023-04-19T22:02:18.968Z,10.60
2023-04-19T22:04:45.772Z,10.50
2023-04-19T22:07:12.571Z,10.50
2023-04-19T22:09:39.854Z,10.50
2023-04-19T22:12:06.897Z,10.50
2023-04-19T22:14:33.672Z,10.50
2023-04-19T22:17:02.518Z,10.40
2023-04-19T22:19:29.624Z,10.40
2023-04-19T22:21:56.838Z,10.30
2023-04-19T22:24:23.764Z,10.30
2023-04-19T22:26:50.891Z,10.20
2023-04-19T22:29:18.101Z,10.20
2023-04-19T22:31:45.166Z,10.20
2023-04-19T22:34:11.946Z,10.20
2023-04-19T22:36:38.678Z,10.10
2023-04-19T22:39:05.516Z,10.10
2023-04-19T22:41:33.428Z,10.10
2023-04-19T22:44:00.479Z,10.00
2023-04-19T22:46:27.515Z,10.00
2023-04-19T22:48:56.031Z,10.00
2023-04-19T22:51:24.429Z,10.00
2023-04-19T22:53:51.207Z,9.90
2023-04-19T22:56:17.955Z,9.90
2023-04-19T22:58:44.792Z,9.80
2023-04-19T23:01:11.547Z,9.80
2023-04-19T23:03:38.448Z,9.80
2023-04-19T23:06:05.306Z,9.70
2023-04-19T23:08:33.346Z,9.70
2023-04-19T23:11:00.407Z,9.60
2023-04-19T23:13:28.459Z,9.70
2023-04-19T23:15:55.227Z,9.60
2023-04-19T23:18:22.071Z,9.50
2023-04-19T23:20:48.773Z,9.50
2023-04-19T23:23:15.577Z,9.50
2023-04-19T23:25:42.546Z,9.50
2023-04-19T23:28:11.910Z,9.50
2023-04-19T23:30:39.311Z,9.40
2023-04-19T23:33:06.248Z,9.40
2023-04-19T23:35:33.091Z,9.40
2023-04-19T23:38:00.302Z,9.30
2023-04-19T23:40:27.063Z,9.30
2023-04-19T23:42:53.752Z,9.30
2023-04-19T23:45:20.800Z,9.30
2023-04-19T23:47:47.641Z,9.30
2023-04-19T23:50:14.385Z,9.30
2023-04-19T23:52:41.222Z,9.20
2023-04-19T23:55:08.251Z,9.20
2023-04-19T23:57:35.828Z,9.20
